Hauptseite
METAR-TAF:

METAR-TAF

Flughäfen :

Flughafen Sandane

Sandane, Norwegen

Breite: 61-50N, Länge: 006-07E, Höhe: 6 m

Beobachtung

Neuester Wetterbericht von vor 25 Minuten, um 19:20 UTC
Wind 4 kt aus Ost
Temperatur 23°C
Luftfeuchtigkeit 38%
Luftdruck 1015 hPa
Sichtweite 10 km oder mehr
keine Wolken unter 1500 m und keine Kumulonimbus oder Gewitterwolken

METAR: ENSD 231920Z 08004KT CAVOK 23/08 Q1015 RMK WIND RWY 26 VRB01KT WIND 1140FT 08005KT

Zeit: 21:45 (19:45 UTC)

Prognose

Neuester Wetterbericht von vor 5 Stunden und 45 Minuten, um 14:00 UTC
Gültige Prognose vom 23 um 15 UTC bis 23 um 21 UTC
Wind 5 kt aus unterschiedlichen Richtungen
Sichtweite 10 km oder mehr
keine Wolken unter 1500 m und keine Kumulonimbus oder Gewitterwolken

TAF: ENSD 231400Z 2315/2321 VRB05KT CAVOK

Wetterbeobachtungen und Prognosen von mehr als 4000 Flughäfen (METAR und TAF Bericht).

Die verfügbaren Stationen werden durch gelbe und rote Markierungen auf der Karte dargestellt.

Führen Sie die Maus auf sie, um den Namen der Station zu sehen.

Darauf klicken, um die Beobachtung von Wetterbeobachtungen und Prognosen zu sehen.

Um die Karte zu ändern : klicken Sie auf den grünen Tasten mit einem schwarzen Kreuz Zum Vergrößern, auf den grünen Button mit einem Gedankenstrich zu verkleinern, oder auf die grünen Pfeile für benachbarte Karten.


METAR-TAF: